Time;durP1;ratioP1;P1;durP2;ratioP2;P2;SDS_P1;SDS_P2;PMS_P1;PMS_P2;Temp;Humidity;BMP_temperature;BMP_pressure;BME280_temperature;BME280_humidity;BME280_pressure;Samples;Min_cycle;Max_cycle;Signal;HPM_P1;HPM_P2
2023/06/02 00:02:05;;;;;;;5.40;3.10;;;;;;;;;;5091620;28;20325;-64
2023/06/02 00:04:35;;;;;;;5.83;3.90;;;;;;;;;;5063978;28;20212;-61
2023/06/02 00:07:03;;;;;;;6.97;4.07;;;;;;;;;;5080185;28;20707;-63
2023/06/02 00:09:32;;;;;;;4.13;3.70;;;;;;;;;;5088454;28;20209;-64
2023/06/02 00:11:59;;;;;;;6.27;3.80;;;;;;;;;;5081933;28;20221;-64
2023/06/02 00:14:26;;;;;;;5.40;3.50;;;;;;;;;;5083379;28;20205;-63
2023/06/02 00:17:00;;;;;;;4.83;3.20;;;;;;;;;;5081362;28;20302;-64
2023/06/02 00:19:30;;;;;;;5.03;3.17;;;;;;;;;;5077878;28;20680;-63
2023/06/02 00:21:58;;;;;;;5.23;2.90;;;;;;;;;;5078910;28;20235;-63
2023/06/02 00:24:26;;;;;;;3.93;3.43;;;;;;;;;;5087866;28;20716;-63
2023/06/02 00:26:53;;;;;;;4.60;2.93;;;;;;;;;;5080792;28;20209;-62
2023/06/02 00:29:20;;;;;;;3.87;3.00;;;;;;;;;;5071348;28;20204;-64
2023/06/02 00:31:48;;;;;;;4.73;3.07;;;;;;;;;;5085804;28;20229;-63
2023/06/02 00:34:15;;;;;;;4.03;3.00;;;;;;;;;;5087441;28;20291;-63
2023/06/02 00:36:42;;;;;;;3.17;2.77;;;;;;;;;;5081612;28;20558;-63
2023/06/02 00:39:10;;;;;;;4.47;2.70;;;;;;;;;;5078839;28;20213;-63
2023/06/02 00:41:40;;;;;;;5.80;3.07;;;;;;;;;;5080798;28;20221;-63
2023/06/02 00:44:07;;;;;;;4.50;2.83;;;;;;;;;;5094198;28;20201;-64
2023/06/02 00:46:35;;;;;;;4.07;2.80;;;;;;;;;;5087980;28;20201;-62
2023/06/02 00:49:03;;;;;;;5.57;3.20;;;;;;;;;;5083765;28;20197;-63
2023/06/02 00:51:31;;;;;;;4.00;3.10;;;;;;;;;;5089684;28;20225;-62
2023/06/02 00:53:58;;;;;;;4.00;3.10;;;;;;;;;;5087245;28;20255;-62
2023/06/02 00:56:25;;;;;;;3.47;2.70;;;;;;;;;;5066667;28;20295;-62
2023/06/02 00:58:53;;;;;;;4.63;3.60;;;;;;;;;;5086120;28;20201;-61
2023/06/02 01:01:21;;;;;;;4.10;3.10;;;;;;;;;;5091890;28;20232;-62
2023/06/02 01:03:49;;;;;;;3.93;3.33;;;;;;;;;;5077555;28;20266;-63
2023/06/02 01:06:23;;;;;;;7.17;3.17;;;;;;;;;;5085237;28;20212;-64
2023/06/02 01:08:51;;;;;;;4.00;3.17;;;;;;;;;;5075621;28;20207;-63
2023/06/02 01:11:19;;;;;;;4.73;3.40;;;;;;;;;;5081201;28;20233;-62
2023/06/02 01:13:48;;;;;;;5.50;3.70;;;;;;;;;;5075758;28;20201;-63
2023/06/02 01:16:16;;;;;;;4.17;3.27;;;;;;;;;;5068430;28;20223;-63
2023/06/02 01:18:45;;;;;;;9.03;3.67;;;;;;;;;;5061629;28;20205;-62
2023/06/02 01:21:21;;;;;;;4.67;3.13;;;;;;;;;;5086464;28;20228;-62
2023/06/02 01:23:51;;;;;;;3.60;3.03;;;;;;;;;;5076815;28;20624;-63
2023/06/02 01:26:18;;;;;;;4.80;3.17;;;;;;;;;;5084475;28;20576;-61
2023/06/02 01:28:46;;;;;;;4.93;3.93;;;;;;;;;;5076239;28;20246;-63
2023/06/02 01:31:17;;;;;;;8.57;5.40;;;;;;;;;;5081379;28;20221;-63
2023/06/02 01:34:05;;;;;;;6.90;4.43;;;;;;;;;;5081186;28;20193;-63
2023/06/02 01:36:35;;;;;;;5.80;3.80;;;;;;;;;;5088525;28;20242;-63
2023/06/02 01:39:04;;;;;;;8.33;4.00;;;;;;;;;;5079292;28;20292;-63
2023/06/02 01:41:33;;;;;;;6.47;4.00;;;;;;;;;;5091040;28;20224;-63
2023/06/02 01:44:02;;;;;;;5.97;3.73;;;;;;;;;;5085222;28;20678;-63
2023/06/02 01:46:29;;;;;;;5.07;4.03;;;;;;;;;;5075284;28;20290;-63
2023/06/02 01:48:57;;;;;;;6.10;3.60;;;;;;;;;;5077654;28;20251;-63
2023/06/02 01:51:24;;;;;;;5.63;3.70;;;;;;;;;;5076151;28;20228;-63
2023/06/02 01:53:51;;;;;;;4.30;3.43;;;;;;;;;;5085522;28;20254;-63
2023/06/02 01:56:19;;;;;;;4.53;3.70;;;;;;;;;;5079571;28;20283;-63
2023/06/02 01:58:48;;;;;;;3.83;3.37;;;;;;;;;;5083471;28;20197;-63
2023/06/02 02:01:15;;;;;;;6.07;3.80;;;;;;;;;;5074983;28;20720;-63
2023/06/02 02:03:42;;;;;;;4.20;3.60;;;;;;;;;;5083549;28;20200;-63
2023/06/02 02:06:10;;;;;;;4.40;3.80;;;;;;;;;;5080561;28;20208;-63
2023/06/02 02:08:37;;;;;;;8.57;5.23;;;;;;;;;;5075038;28;20232;-63
2023/06/02 02:11:04;;;;;;;6.23;4.87;;;;;;;;;;5081928;28;20227;-63
2023/06/02 02:13:32;;;;;;;4.40;4.00;;;;;;;;;;5082386;28;20226;-63
2023/06/02 02:15:59;;;;;;;5.73;4.67;;;;;;;;;;5082313;28;20203;-64
2023/06/02 02:18:27;;;;;;;5.33;4.40;;;;;;;;;;5079343;28;20325;-64
2023/06/02 02:20:54;;;;;;;7.33;4.70;;;;;;;;;;5074568;28;20217;-62
2023/06/02 02:23:21;;;;;;;7.13;4.37;;;;;;;;;;5078987;28;20295;-63
2023/06/02 02:25:49;;;;;;;5.03;4.30;;;;;;;;;;5081606;28;20207;-64
2023/06/02 02:28:16;;;;;;;4.90;4.40;;;;;;;;;;5083417;28;20282;-63
2023/06/02 02:30:43;;;;;;;5.20;3.67;;;;;;;;;;5075586;28;20228;-63
2023/06/02 02:33:13;;;;;;;5.50;4.10;;;;;;;;;;5054771;28;20220;-63
2023/06/02 02:35:41;;;;;;;4.37;3.53;;;;;;;;;;5068680;28;20204;-63
2023/06/02 02:38:08;;;;;;;4.50;3.90;;;;;;;;;;5073812;28;20197;-63
2023/06/02 02:40:36;;;;;;;5.33;4.20;;;;;;;;;;5067960;28;20268;-63
2023/06/02 02:43:03;;;;;;;4.40;4.00;;;;;;;;;;5063069;28;20201;-65
2023/06/02 02:45:30;;;;;;;6.57;3.93;;;;;;;;;;5085354;28;20197;-61
2023/06/02 02:47:57;;;;;;;5.77;4.10;;;;;;;;;;5084988;28;20205;-61
2023/06/02 02:50:25;;;;;;;7.00;3.90;;;;;;;;;;5083925;28;20224;-61
2023/06/02 02:52:53;;;;;;;4.53;4.13;;;;;;;;;;5082467;28;20618;-62
2023/06/02 02:55:20;;;;;;;4.90;3.73;;;;;;;;;;5076885;28;20694;-61
2023/06/02 02:57:47;;;;;;;5.87;4.20;;;;;;;;;;5078446;28;20242;-61
2023/06/02 03:00:15;;;;;;;4.20;3.80;;;;;;;;;;5076498;28;20286;-63
2023/06/02 03:02:42;;;;;;;4.57;3.60;;;;;;;;;;5061921;28;20214;-61
2023/06/02 03:05:10;;;;;;;4.13;3.43;;;;;;;;;;5080963;28;20682;-61
2023/06/02 03:07:39;;;;;;;5.33;3.87;;;;;;;;;;5075880;28;20573;-63
2023/06/02 03:10:07;;;;;;;4.70;3.67;;;;;;;;;;5078951;28;20201;-62
2023/06/02 03:12:34;;;;;;;5.33;3.87;;;;;;;;;;5071962;28;20228;-62
2023/06/02 03:15:02;;;;;;;4.83;3.80;;;;;;;;;;5069333;28;20206;-62
2023/06/02 03:17:31;;;;;;;5.67;4.67;;;;;;;;;;5080073;28;20616;-64
2023/06/02 03:19:58;;;;;;;6.00;4.67;;;;;;;;;;5079868;28;20201;-60
2023/06/02 03:22:28;;;;;;;5.40;4.77;;;;;;;;;;5079639;28;20227;-62
2023/06/02 03:24:56;;;;;;;11.37;6.20;;;;;;;;;;5078988;28;20201;-63
2023/06/02 03:27:23;;;;;;;5.50;4.73;;;;;;;;;;5079297;28;20212;-62
2023/06/02 03:29:51;;;;;;;7.37;4.73;;;;;;;;;;5079144;28;20217;-61
2023/06/02 03:32:18;;;;;;;6.13;4.70;;;;;;;;;;5063136;28;20244;-65
2023/06/02 03:34:46;;;;;;;6.83;4.87;;;;;;;;;;5068697;28;20205;-62
2023/06/02 03:37:13;;;;;;;7.93;5.10;;;;;;;;;;5074552;28;20773;-63
2023/06/02 03:39:40;;;;;;;10.33;5.53;;;;;;;;;;5068480;28;20759;-61
2023/06/02 03:42:08;;;;;;;6.17;5.30;;;;;;;;;;5080000;28;20707;-61
2023/06/02 03:44:35;;;;;;;7.27;5.37;;;;;;;;;;5080194;28;20202;-62
2023/06/02 03:47:02;;;;;;;8.10;4.93;;;;;;;;;;5072757;28;20201;-61
2023/06/02 03:49:31;;;;;;;5.17;4.67;;;;;;;;;;5074136;28;20309;-60
2023/06/02 03:51:59;;;;;;;5.73;4.43;;;;;;;;;;5065222;28;20229;-61
2023/06/02 03:54:26;;;;;;;9.57;4.50;;;;;;;;;;5061776;28;20628;-62
2023/06/02 03:56:53;;;;;;;5.97;4.53;;;;;;;;;;5058333;28;20204;-61
2023/06/02 03:59:21;;;;;;;4.83;4.13;;;;;;;;;;5082362;28;20205;-63
2023/06/02 04:01:48;;;;;;;5.93;4.03;;;;;;;;;;5078883;28;20245;-63
2023/06/02 04:04:15;;;;;;;7.27;4.60;;;;;;;;;;5078230;28;20232;-63
2023/06/02 04:06:43;;;;;;;7.63;4.97;;;;;;;;;;5057426;28;20361;-63
2023/06/02 04:09:11;;;;;;;5.27;4.50;;;;;;;;;;5084307;28;20262;-63
2023/06/02 04:11:41;;;;;;;5.60;4.17;;;;;;;;;;5075449;28;20244;-62
2023/06/02 04:14:09;;;;;;;5.30;4.00;;;;;;;;;;5082879;28;20235;-62
2023/06/02 04:16:37;;;;;;;5.47;4.43;;;;;;;;;;5074300;28;20205;-63
2023/06/02 04:19:05;;;;;;;6.67;4.77;;;;;;;;;;5059267;28;20744;-63
2023/06/02 04:21:32;;;;;;;4.60;4.20;;;;;;;;;;5074585;28;20236;-62
2023/06/02 04:24:00;;;;;;;7.40;4.40;;;;;;;;;;5083919;28;20209;-63
2023/06/02 04:26:27;;;;;;;6.80;4.67;;;;;;;;;;5085957;28;20200;-62
2023/06/02 04:28:54;;;;;;;7.10;4.70;;;;;;;;;;5079465;28;20220;-63
2023/06/02 04:31:45;;;;;;;6.40;4.20;;;;;;;;;;5079739;28;20253;-63
2023/06/02 04:34:12;;;;;;;6.10;4.73;;;;;;;;;;5085802;28;20311;-62
2023/06/02 04:36:41;;;;;;;7.00;4.43;;;;;;;;;;5091294;28;20196;-62
2023/06/02 04:39:10;;;;;;;7.60;4.97;;;;;;;;;;5083848;28;20258;-61
2023/06/02 04:41:38;;;;;;;4.83;4.27;;;;;;;;;;5087910;28;20232;-62
2023/06/02 04:44:08;;;;;;;4.90;4.30;;;;;;;;;;5092097;28;20279;-61
2023/06/02 04:46:36;;;;;;;5.27;4.77;;;;;;;;;;5096587;28;20213;-61
2023/06/02 04:49:08;;;;;;;6.87;4.40;;;;;;;;;;5079070;28;20312;-63
2023/06/02 04:51:37;;;;;;;5.30;4.53;;;;;;;;;;5080526;28;20214;-61
2023/06/02 04:54:05;;;;;;;4.50;4.10;;;;;;;;;;5087390;28;20223;-61
2023/06/02 04:56:32;;;;;;;6.43;4.30;;;;;;;;;;5090643;28;20677;-61
2023/06/02 04:59:00;;;;;;;5.97;4.40;;;;;;;;;;5082573;28;20204;-61
2023/06/02 05:01:28;;;;;;;5.20;4.37;;;;;;;;;;5083612;28;20232;-61
2023/06/02 05:03:55;;;;;;;7.67;4.53;;;;;;;;;;5075442;28;20197;-61
2023/06/02 05:06:23;;;;;;;5.80;4.33;;;;;;;;;;5077959;28;20310;-62
2023/06/02 05:08:51;;;;;;;7.17;4.70;;;;;;;;;;5074318;28;20563;-61
2023/06/02 05:11:18;;;;;;;7.60;4.70;;;;;;;;;;5080273;28;20225;-62
2023/06/02 05:13:45;;;;;;;5.80;4.50;;;;;;;;;;5075391;28;20286;-60
2023/06/02 05:16:13;;;;;;;5.43;4.67;;;;;;;;;;5079916;28;20283;-61
2023/06/02 05:18:41;;;;;;;6.20;4.43;;;;;;;;;;5079245;28;20201;-60
2023/06/02 05:21:09;;;;;;;5.97;4.87;;;;;;;;;;5071081;28;20224;-63
2023/06/02 05:23:37;;;;;;;7.20;5.00;;;;;;;;;;5062077;28;20201;-61
2023/06/02 05:26:04;;;;;;;4.47;4.00;;;;;;;;;;5075193;28;20298;-62
2023/06/02 05:28:31;;;;;;;5.07;4.50;;;;;;;;;;5072450;28;20205;-61
2023/06/02 05:30:59;;;;;;;4.90;3.88;;;;;;;;;;5076177;28;20221;-61
2023/06/02 05:33:28;;;;;;;6.03;4.28;;;;;;;;;;5057615;28;20249;-62
2023/06/02 05:35:56;;;;;;;9.20;4.53;;;;;;;;;;5080987;28;20208;-62
2023/06/02 05:38:23;;;;;;;4.78;4.28;;;;;;;;;;5076968;28;20794;-64
2023/06/02 05:40:51;;;;;;;4.45;4.03;;;;;;;;;;5077825;28;20609;-63
2023/06/02 05:43:19;;;;;;;7.85;4.50;;;;;;;;;;5078613;28;20208;-60
2023/06/02 05:45:46;;;;;;;7.35;4.50;;;;;;;;;;5059090;28;20209;-62
2023/06/02 05:48:14;;;;;;;4.90;4.43;;;;;;;;;;5069614;28;20220;-62
2023/06/02 05:50:42;;;;;;;4.35;3.92;;;;;;;;;;5053065;28;20364;-63
2023/06/02 05:53:09;;;;;;;4.38;3.97;;;;;;;;;;5070945;28;20231;-63
2023/06/02 05:55:37;;;;;;;4.50;3.90;;;;;;;;;;5070220;28;20564;-61
2023/06/02 05:58:05;;;;;;;5.03;4.32;;;;;;;;;;5067427;28;20207;-62
2023/06/02 06:00:32;;;;;;;4.90;4.07;;;;;;;;;;5074295;28;20237;-62
2023/06/02 06:02:59;;;;;;;5.93;4.13;;;;;;;;;;5065340;28;20204;-61
2023/06/02 06:05:27;;;;;;;4.57;4.13;;;;;;;;;;5067320;28;20664;-62
2023/06/02 06:07:54;;;;;;;6.03;4.60;;;;;;;;;;5077334;28;20230;-61
2023/06/02 06:10:21;;;;;;;6.13;4.95;;;;;;;;;;5054919;28;20225;-61
2023/06/02 06:12:49;;;;;;;5.30;4.80;;;;;;;;;;5067909;28;20373;-62
2023/06/02 06:15:16;;;;;;;5.80;4.90;;;;;;;;;;5071940;28;20201;-64
2023/06/02 06:17:50;;;;;;;6.15;4.72;;;;;;;;;;5072962;28;20216;-64
2023/06/02 06:20:17;;;;;;;6.53;5.18;;;;;;;;;;5076671;28;20220;-63
2023/06/02 06:22:45;;;;;;;8.68;5.00;;;;;;;;;;5078706;28;20213;-62
2023/06/02 06:25:12;;;;;;;5.60;4.80;;;;;;;;;;5071461;28;20208;-61
2023/06/02 06:27:40;;;;;;;10.35;5.50;;;;;;;;;;5080808;28;20317;-64
2023/06/02 06:30:08;;;;;;;7.03;4.70;;;;;;;;;;5072813;28;20205;-61
2023/06/02 06:32:35;;;;;;;5.78;5.18;;;;;;;;;;5076238;28;20757;-64
2023/06/02 06:35:02;;;;;;;6.82;4.75;;;;;;;;;;5082355;28;20204;-61
2023/06/02 06:37:30;;;;;;;8.57;6.45;;;;;;;;;;5083102;28;20333;-61
2023/06/02 06:39:57;;;;;;;8.50;5.35;;;;;;;;;;5078614;28;20205;-62
2023/06/02 06:42:24;;;;;;;11.97;7.20;;;;;;;;;;5080809;28;20221;-61
2023/06/02 06:44:52;;;;;;;8.93;5.37;;;;;;;;;;5076304;28;20208;-62
2023/06/02 06:47:19;;;;;;;7.07;4.97;;;;;;;;;;5082639;28;20294;-61
2023/06/02 06:49:47;;;;;;;4.97;4.50;;;;;;;;;;5082593;28;20558;-62
2023/06/02 06:52:14;;;;;;;7.30;4.83;;;;;;;;;;5062017;28;20233;-62
2023/06/02 06:54:41;;;;;;;7.47;5.93;;;;;;;;;;5078259;28;20576;-64
2023/06/02 06:57:09;;;;;;;6.23;5.20;;;;;;;;;;5057213;28;20206;-61
2023/06/02 06:59:37;;;;;;;8.07;5.37;;;;;;;;;;5074239;28;20278;-63
2023/06/02 07:02:04;;;;;;;7.83;5.50;;;;;;;;;;5066531;28;20315;-62
2023/06/02 07:04:32;;;;;;;10.15;6.20;;;;;;;;;;5080150;28;20223;-60
2023/06/02 07:06:59;;;;;;;7.93;5.53;;;;;;;;;;5071309;28;20208;-62
2023/06/02 07:09:26;;;;;;;6.63;5.13;;;;;;;;;;5072251;28;20263;-61
2023/06/02 07:11:54;;;;;;;8.87;5.63;;;;;;;;;;5075383;28;20923;-61
2023/06/02 07:14:22;;;;;;;8.02;5.60;;;;;;;;;;5072372;28;20273;-61
2023/06/02 07:16:53;;;;;;;8.97;5.67;;;;;;;;;;5077643;28;20250;-63
2023/06/02 07:19:21;;;;;;;6.38;4.93;;;;;;;;;;5082233;28;20204;-61
2023/06/02 07:21:49;;;;;;;7.18;5.50;;;;;;;;;;5079092;28;20226;-61
2023/06/02 07:24:16;;;;;;;9.48;5.78;;;;;;;;;;5066608;28;20574;-63
2023/06/02 07:26:44;;;;;;;6.80;5.77;;;;;;;;;;5063516;28;20201;-64
2023/06/02 07:29:11;;;;;;;7.28;5.95;;;;;;;;;;5088643;28;20713;-64
2023/06/02 07:31:43;;;;;;;6.93;5.87;;;;;;;;;;5085316;28;20619;-62
2023/06/02 07:34:11;;;;;;;8.95;6.07;;;;;;;;;;5081327;28;20363;-61
2023/06/02 07:36:38;;;;;;;9.63;7.03;;;;;;;;;;5085501;28;20250;-61
2023/06/02 07:39:05;;;;;;;9.03;6.43;;;;;;;;;;5074073;28;20199;-62
2023/06/02 07:41:36;;;;;;;11.02;6.25;;;;;;;;;;5076872;28;20620;-60
2023/06/02 07:44:03;;;;;;;9.90;6.65;;;;;;;;;;5079700;28;20224;-62
2023/06/02 07:46:30;;;;;;;8.85;6.00;;;;;;;;;;5076339;28;20326;-62
2023/06/02 07:48:58;;;;;;;7.90;6.13;;;;;;;;;;5076219;28;20720;-63
2023/06/02 07:51:25;;;;;;;6.82;5.90;;;;;;;;;;5081862;28;20747;-62
2023/06/02 07:53:52;;;;;;;11.03;7.30;;;;;;;;;;5073063;28;20213;-62
2023/06/02 07:56:20;;;;;;;9.18;6.15;;;;;;;;;;5076559;28;20630;-63
2023/06/02 07:58:48;;;;;;;9.20;5.78;;;;;;;;;;5076114;28;20205;-63
2023/06/02 08:01:16;;;;;;;7.72;6.40;;;;;;;;;;5077323;28;20778;-62
2023/06/02 08:03:43;;;;;;;7.72;6.20;;;;;;;;;;5081724;28;20545;-63
2023/06/02 08:06:11;;;;;;;10.77;6.85;;;;;;;;;;5078847;28;20266;-64
2023/06/02 08:08:38;;;;;;;11.02;6.57;;;;;;;;;;5079491;28;20201;-62
2023/06/02 08:11:06;;;;;;;10.48;6.43;;;;;;;;;;5076258;28;20794;-63
2023/06/02 08:13:33;;;;;;;12.65;6.88;;;;;;;;;;5079153;28;20217;-62
2023/06/02 08:16:01;;;;;;;9.48;6.80;;;;;;;;;;5078850;28;20394;-62
2023/06/02 08:18:48;;;;;;;9.93;7.30;;;;;;;;;;5069765;28;21675;-62
2023/06/02 08:21:15;;;;;;;7.90;6.88;;;;;;;;;;5066913;28;20586;-62
2023/06/02 08:23:43;;;;;;;9.02;6.40;;;;;;;;;;5075964;28;20251;-62
2023/06/02 08:26:10;;;;;;;7.45;6.13;;;;;;;;;;5080651;28;20209;-63
2023/06/02 08:28:38;;;;;;;8.93;6.85;;;;;;;;;;5078430;28;20742;-63
2023/06/02 08:31:06;;;;;;;7.03;6.30;;;;;;;;;;5082556;28;20710;-62
2023/06/02 08:33:35;;;;;;;9.85;6.85;;;;;;;;;;5074920;28;20467;-62
2023/06/02 08:36:02;;;;;;;8.52;7.18;;;;;;;;;;5087427;28;20779;-62
2023/06/02 08:38:32;;;;;;;9.48;6.22;;;;;;;;;;5061108;28;20197;-63
2023/06/02 08:40:59;;;;;;;8.48;6.50;;;;;;;;;;5076625;28;20217;-63
2023/06/02 08:43:27;;;;;;;11.52;6.90;;;;;;;;;;5088129;28;20211;-62
2023/06/02 08:46:00;;;;;;;9.32;7.00;;;;;;;;;;5087121;28;20616;-63
2023/06/02 08:48:28;;;;;;;8.27;6.45;;;;;;;;;;5084034;28;20202;-62
2023/06/02 08:50:58;;;;;;;7.95;6.30;;;;;;;;;;5080813;28;20232;-61
2023/06/02 08:53:25;;;;;;;9.68;7.07;;;;;;;;;;5080175;28;20225;-63
2023/06/02 08:55:53;;;;;;;7.72;6.60;;;;;;;;;;5062464;28;20197;-62
2023/06/02 08:58:21;;;;;;;8.32;6.63;;;;;;;;;;5085327;28;20259;-62
2023/06/02 09:00:48;;;;;;;9.15;6.70;;;;;;;;;;5083709;28;20237;-63
2023/06/02 09:03:16;;;;;;;10.38;7.20;;;;;;;;;;5060814;28;20207;-62
2023/06/02 09:05:46;;;;;;;9.57;6.63;;;;;;;;;;5062242;28;20200;-65
2023/06/02 09:08:15;;;;;;;9.95;6.53;;;;;;;;;;5088115;28;20197;-62
2023/06/02 09:10:45;;;;;;;9.45;6.03;;;;;;;;;;5082649;28;20229;-62
2023/06/02 09:13:29;;;;;;;8.10;6.35;;;;;;;;;;5082320;28;20204;-62
2023/06/02 09:15:57;;;;;;;8.13;5.75;;;;;;;;;;5066234;28;20197;-62
2023/06/02 09:18:25;;;;;;;7.65;5.78;;;;;;;;;;5058088;28;20212;-62
2023/06/02 09:20:53;;;;;;;6.80;6.03;;;;;;;;;;5068207;28;20218;-63
2023/06/02 09:23:20;;;;;;;10.77;6.18;;;;;;;;;;5069600;28;20726;-63
2023/06/02 09:25:51;;;;;;;8.23;5.70;;;;;;;;;;5082541;28;20205;-61
2023/06/02 09:28:18;;;;;;;8.35;5.60;;;;;;;;;;5061898;28;20271;-62
2023/06/02 09:30:46;;;;;;;6.85;5.35;;;;;;;;;;5080179;28;20244;-61
2023/06/02 09:33:14;;;;;;;7.35;5.53;;;;;;;;;;5077812;28;20224;-63
2023/06/02 09:35:44;;;;;;;8.18;5.47;;;;;;;;;;5080847;28;20232;-61
2023/06/02 09:38:15;;;;;;;7.32;6.00;;;;;;;;;;5082368;28;20205;-63
2023/06/02 09:40:43;;;;;;;6.97;5.40;;;;;;;;;;5079552;28;20395;-63
2023/06/02 09:43:12;;;;;;;8.68;4.90;;;;;;;;;;5082038;28;20671;-64
2023/06/02 09:45:48;;;;;;;7.88;5.40;;;;;;;;;;5073628;28;20340;-64
2023/06/02 09:48:20;;;;;;;8.48;5.35;;;;;;;;;;5077329;28;20269;-63
2023/06/02 09:50:48;;;;;;;8.85;5.05;;;;;;;;;;5072378;28;20232;-62
2023/06/02 09:53:17;;;;;;;7.07;4.78;;;;;;;;;;5078046;28;20700;-63
2023/06/02 09:55:46;;;;;;;5.45;4.95;;;;;;;;;;5076127;28;20755;-62
2023/06/02 09:58:13;;;;;;;7.72;5.57;;;;;;;;;;5075915;28;20213;-62
2023/06/02 10:00:41;;;;;;;8.70;5.72;;;;;;;;;;5069922;28;20650;-62
2023/06/02 10:03:08;;;;;;;7.22;4.97;;;;;;;;;;5078797;28;20656;-61
2023/06/02 10:05:38;;;;;;;8.93;5.35;;;;;;;;;;5067303;28;20213;-61
2023/06/02 10:08:11;;;;;;;7.32;4.97;;;;;;;;;;5069952;28;20201;-62
2023/06/02 10:10:38;;;;;;;6.95;4.90;;;;;;;;;;5075386;28;20602;-62
2023/06/02 10:13:15;;;;;;;9.35;5.10;;;;;;;;;;5075757;28;20205;-62
2023/06/02 10:16:01;;;;;;;6.82;5.20;;;;;;;;;;5075896;28;20213;-61
2023/06/02 10:18:41;;;;;;;7.28;4.97;;;;;;;;;;5072595;28;20197;-61
2023/06/02 10:21:14;;;;;;;6.28;5.45;;;;;;;;;;5064914;28;20217;-63
2023/06/02 10:23:46;;;;;;;6.65;5.13;;;;;;;;;;5066743;28;20204;-61
2023/06/02 10:26:17;;;;;;;7.60;5.30;;;;;;;;;;5071330;28;21286;-63
2023/06/02 10:28:45;;;;;;;6.90;5.18;;;;;;;;;;5064069;28;20583;-61
2023/06/02 10:31:13;;;;;;;6.22;5.00;;;;;;;;;;5076433;28;20228;-63
2023/06/02 10:33:50;;;;;;;5.97;5.40;;;;;;;;;;5065378;28;20435;-61
2023/06/02 10:36:18;;;;;;;7.45;4.90;;;;;;;;;;5065634;28;20199;-64
2023/06/02 10:38:46;;;;;;;9.55;5.25;;;;;;;;;;5073808;28;20269;-61
2023/06/02 10:41:14;;;;;;;6.85;4.10;;;;;;;;;;5056001;28;20718;-62
2023/06/02 10:44:02;;;;;;;5.10;4.20;;;;;;;;;;5071365;28;20927;-62
2023/06/02 10:46:29;;;;;;;5.63;4.43;;;;;;;;;;5054229;28;20201;-62
2023/06/02 10:48:57;;;;;;;4.72;4.32;;;;;;;;;;5068883;28;20224;-63
2023/06/02 10:51:24;;;;;;;5.72;5.18;;;;;;;;;;5071858;28;20232;-62
2023/06/02 10:54:06;;;;;;;7.68;4.68;;;;;;;;;;5076199;28;20209;-64
2023/06/02 10:56:39;;;;;;;8.00;5.60;;;;;;;;;;5074667;28;20204;-62
2023/06/02 10:59:10;;;;;;;7.38;4.82;;;;;;;;;;5082599;28;20192;-63
2023/06/02 11:01:44;;;;;;;9.38;6.50;;;;;;;;;;5084619;28;20242;-62
2023/06/02 11:04:44;;;;;;;6.55;5.25;;;;;;;;;;5081574;28;20700;-62
2023/06/02 11:07:21;;;;;;;6.30;5.40;;;;;;;;;;5035095;28;20216;-63
2023/06/02 11:09:55;;;;;;;5.18;4.68;;;;;;;;;;5089171;28;20202;-62
2023/06/02 11:12:41;;;;;;;8.23;5.18;;;;;;;;;;5081599;28;20247;-63
2023/06/02 11:15:09;;;;;;;10.60;7.25;;;;;;;;;;5095485;28;20319;-63
2023/06/02 11:17:38;;;;;;;8.02;5.45;;;;;;;;;;5082653;28;20228;-63
2023/06/02 11:20:05;;;;;;;11.23;7.40;;;;;;;;;;5088068;28;20197;-64
2023/06/02 11:22:33;;;;;;;10.48;6.53;;;;;;;;;;5079643;28;20196;-62
2023/06/02 11:25:02;;;;;;;6.95;6.07;;;;;;;;;;5082901;28;20470;-63
2023/06/02 11:27:37;;;;;;;10.40;7.88;;;;;;;;;;5067041;28;20206;-63
2023/06/02 11:30:06;;;;;;;7.47;5.57;;;;;;;;;;5079126;28;20432;-64
2023/06/02 11:32:36;;;;;;;7.45;6.53;;;;;;;;;;5082640;28;20204;-62
2023/06/02 11:35:08;;;;;;;10.02;5.70;;;;;;;;;;5081941;28;20270;-63
2023/06/02 11:37:36;;;;;;;7.75;5.40;;;;;;;;;;5071625;28;20205;-62
2023/06/02 11:40:05;;;;;;;6.40;5.65;;;;;;;;;;5082899;28;20202;-62
2023/06/02 11:42:36;;;;;;;8.43;5.80;;;;;;;;;;5083812;28;20208;-63
2023/06/02 11:45:04;;;;;;;9.10;5.85;;;;;;;;;;5081490;28;20204;-62
2023/06/02 11:47:33;;;;;;;6.47;5.88;;;;;;;;;;5086713;28;20634;-64
2023/06/02 11:50:00;;;;;;;10.57;6.28;;;;;;;;;;5083790;28;20201;-62
2023/06/02 11:52:32;;;;;;;6.93;6.18;;;;;;;;;;5081607;28;20210;-62
2023/06/02 11:54:59;;;;;;;8.55;6.80;;;;;;;;;;5071518;28;20690;-61
2023/06/02 11:57:28;;;;;;;6.72;6.03;;;;;;;;;;5076053;28;20202;-62
2023/06/02 12:00:19;;;;;;;6.90;5.65;;;;;;;;;;5086448;28;20274;-62
2023/06/02 12:02:51;;;;;;;8.05;6.03;;;;;;;;;;5084069;28;20189;-64
2023/06/02 12:05:33;;;;;;;7.70;5.53;;;;;;;;;;5078935;28;20305;-63
2023/06/02 12:08:20;;;;;;;10.48;6.20;;;;;;;;;;5087518;28;20242;-64
2023/06/02 12:10:48;;;;;;;8.02;6.47;;;;;;;;;;5069949;28;20361;-62
2023/06/02 12:13:25;;;;;;;9.93;6.82;;;;;;;;;;5075639;28;20810;-63
2023/06/02 12:15:53;;;;;;;8.15;5.75;;;;;;;;;;5071955;28;20710;-62
2023/06/02 12:18:31;;;;;;;12.18;5.68;;;;;;;;;;5078238;28;20212;-64
2023/06/02 12:21:01;;;;;;;7.75;5.55;;;;;;;;;;5085455;28;21075;-64
2023/06/02 12:23:44;;;;;;;6.93;5.72;;;;;;;;;;5079873;28;20284;-62
2023/06/02 12:26:13;;;;;;;7.50;6.10;;;;;;;;;;5063684;28;20733;-62
2023/06/02 12:28:41;;;;;;;6.30;5.50;;;;;;;;;;5074709;28;20256;-60
2023/06/02 12:31:09;;;;;;;8.52;5.93;;;;;;;;;;5079841;28;20236;-62
2023/06/02 12:33:36;;;;;;;10.10;5.65;;;;;;;;;;5079786;28;20411;-62
2023/06/02 12:36:03;;;;;;;7.95;5.50;;;;;;;;;;5086706;28;20307;-63
2023/06/02 12:38:31;;;;;;;5.68;5.18;;;;;;;;;;5080081;28;20251;-62
2023/06/02 12:41:01;;;;;;;7.65;5.30;;;;;;;;;;5087502;28;20227;-63
2023/06/02 12:43:29;;;;;;;5.60;4.90;;;;;;;;;;5082842;28;20714;-61
2023/06/02 12:45:56;;;;;;;7.95;5.47;;;;;;;;;;5079827;28;20197;-61
2023/06/02 12:48:23;;;;;;;6.07;5.43;;;;;;;;;;5082781;28;20624;-65
2023/06/02 12:50:51;;;;;;;7.43;5.40;;;;;;;;;;5087580;28;20270;-61
2023/06/02 12:53:18;;;;;;;9.05;5.43;;;;;;;;;;5085733;28;20250;-64
2023/06/02 12:55:45;;;;;;;7.35;5.55;;;;;;;;;;5080706;28;20710;-62
2023/06/02 12:58:13;;;;;;;7.07;5.60;;;;;;;;;;5083611;28;20205;-63
2023/06/02 13:00:40;;;;;;;5.70;5.05;;;;;;;;;;5085138;28;20221;-64
2023/06/02 13:03:08;;;;;;;7.40;5.75;;;;;;;;;;5085412;28;20650;-63
2023/06/02 13:05:35;;;;;;;7.25;6.28;;;;;;;;;;5083716;28;20204;-63
2023/06/02 13:08:03;;;;;;;9.82;7.72;;;;;;;;;;5085536;28;20333;-62
2023/06/02 13:10:30;;;;;;;7.28;5.32;;;;;;;;;;5083128;28;20357;-63
2023/06/02 13:12:58;;;;;;;6.57;5.47;;;;;;;;;;5085068;28;20562;-63
2023/06/02 13:15:26;;;;;;;7.43;6.18;;;;;;;;;;5078061;28;20306;-62
2023/06/02 13:17:53;;;;;;;9.13;5.10;;;;;;;;;;5078817;28;20208;-64
2023/06/02 13:20:21;;;;;;;6.90;5.55;;;;;;;;;;5080165;28;20241;-63
2023/06/02 13:22:48;;;;;;;6.25;5.30;;;;;;;;;;5080131;28;20201;-64
2023/06/02 13:25:15;;;;;;;6.25;5.10;;;;;;;;;;5078978;28;20137;-62
2023/06/02 13:27:43;;;;;;;7.22;5.13;;;;;;;;;;5069795;28;20717;-60
2023/06/02 13:30:11;;;;;;;7.22;5.65;;;;;;;;;;5064828;28;20289;-62
2023/06/02 13:32:38;;;;;;;6.35;5.32;;;;;;;;;;5054738;28;20231;-62
2023/06/02 13:35:06;;;;;;;5.80;4.90;;;;;;;;;;5066787;28;20235;-62
2023/06/02 13:37:36;;;;;;;6.43;5.57;;;;;;;;;;5070951;28;20578;-62
2023/06/02 13:40:05;;;;;;;9.63;5.53;;;;;;;;;;5079654;28;20230;-62
2023/06/02 13:42:33;;;;;;;8.35;5.30;;;;;;;;;;5075178;28;20201;-62
2023/06/02 13:45:00;;;;;;;6.10;5.50;;;;;;;;;;5068470;28;20213;-63
2023/06/02 13:47:28;;;;;;;6.25;4.78;;;;;;;;;;5063608;28;20224;-62
2023/06/02 13:49:55;;;;;;;5.82;5.25;;;;;;;;;;5069600;28;20212;-62
2023/06/02 13:52:23;;;;;;;5.40;4.60;;;;;;;;;;5067622;28;20320;-62
2023/06/02 13:54:50;;;;;;;5.80;5.30;;;;;;;;;;5065945;28;20542;-61
2023/06/02 13:57:17;;;;;;;5.80;5.20;;;;;;;;;;5073905;28;20197;-62
2023/06/02 13:59:45;;;;;;;6.15;5.45;;;;;;;;;;5056570;28;20209;-62
2023/06/02 14:02:12;;;;;;;5.82;5.00;;;;;;;;;;5047883;28;20236;-62
2023/06/02 14:04:41;;;;;;;6.72;5.35;;;;;;;;;;5054676;28;20215;-62
2023/06/02 14:07:10;;;;;;;6.10;5.50;;;;;;;;;;5055437;28;20205;-62
2023/06/02 14:09:37;;;;;;;7.05;5.03;;;;;;;;;;5059395;28;20204;-61
2023/06/02 14:12:05;;;;;;;6.80;4.93;;;;;;;;;;5059433;28;20902;-62
2023/06/02 14:14:33;;;;;;;5.90;4.90;;;;;;;;;;5051695;28;20209;-64
2023/06/02 14:17:00;;;;;;;6.53;4.95;;;;;;;;;;5045646;28;20588;-63
2023/06/02 14:19:27;;;;;;;6.13;5.07;;;;;;;;;;5049586;28;20873;-61
2023/06/02 14:21:55;;;;;;;5.93;5.00;;;;;;;;;;5063514;28;20709;-62
2023/06/02 14:24:22;;;;;;;11.65;5.22;;;;;;;;;;5067721;28;20217;-62
2023/06/02 14:26:50;;;;;;;8.98;5.40;;;;;;;;;;5065535;28;20210;-62
2023/06/02 14:29:17;;;;;;;6.90;5.20;;;;;;;;;;5073673;28;20206;-62
2023/06/02 14:31:45;;;;;;;5.78;4.28;;;;;;;;;;5068023;28;20262;-61
2023/06/02 14:34:13;;;;;;;5.03;4.47;;;;;;;;;;5060249;28;20269;-62
2023/06/02 14:36:43;;;;;;;5.72;4.28;;;;;;;;;;5066419;28;20221;-63
2023/06/02 14:39:13;;;;;;;4.95;4.47;;;;;;;;;;5066525;28;20203;-62
2023/06/02 14:41:40;;;;;;;5.25;4.57;;;;;;;;;;5068350;28;20221;-60
2023/06/02 14:44:08;;;;;;;5.68;4.53;;;;;;;;;;5068304;28;20197;-62
2023/06/02 14:46:37;;;;;;;5.95;4.63;;;;;;;;;;5068921;28;20224;-60
2023/06/02 14:49:07;;;;;;;8.90;4.70;;;;;;;;;;5067381;28;20325;-62
2023/06/02 14:51:36;;;;;;;8.23;4.72;;;;;;;;;;5079387;28;20222;-61
2023/06/02 14:54:04;;;;;;;5.10;4.68;;;;;;;;;;5057270;28;20655;-61